createdAt,value
2023-04-26T00:00:45.804Z,20.88
2023-04-26T00:03:14.572Z,18.75
2023-04-26T00:05:42.873Z,9.30
2023-04-26T00:08:10.732Z,9.60
2023-04-26T00:10:40.716Z,21.45
2023-04-26T00:13:08.567Z,10.35
2023-04-26T00:15:36.613Z,14.93
2023-04-26T00:18:04.605Z,8.55
2023-04-26T00:20:32.447Z,8.02
2023-04-26T00:23:00.217Z,7.05
2023-04-26T00:25:28.060Z,6.93
2023-04-26T00:27:55.899Z,7.65
2023-04-26T00:30:23.625Z,6.78
2023-04-26T00:32:51.404Z,6.95
2023-04-26T00:35:19.762Z,5.97
2023-04-26T00:37:47.649Z,6.60
2023-04-26T00:40:17.091Z,6.68
2023-04-26T00:42:44.816Z,6.80
2023-04-26T00:45:12.668Z,7.43
2023-04-26T00:47:41.138Z,6.82
2023-04-26T00:50:10.561Z,6.85
2023-04-26T00:52:38.847Z,5.80
2023-04-26T00:55:07.400Z,5.97
2023-04-26T00:57:35.153Z,4.93
2023-04-26T01:00:03.195Z,4.75
2023-04-26T01:02:31.230Z,4.72
2023-04-26T01:04:59.066Z,4.78
2023-04-26T01:07:26.949Z,4.13
2023-04-26T01:09:56.587Z,3.80
2023-04-26T01:12:25.035Z,3.75
2023-04-26T01:14:53.928Z,3.10
2023-04-26T01:17:24.707Z,3.27
2023-04-26T01:19:52.911Z,2.83
2023-04-26T01:22:21.207Z,2.65
2023-04-26T01:24:51.694Z,2.75
2023-04-26T01:27:19.427Z,4.43
2023-04-26T01:29:48.666Z,5.18
2023-04-26T01:32:16.516Z,16.58
2023-04-26T01:34:44.231Z,13.73
2023-04-26T01:37:12.057Z,14.82
2023-04-26T01:39:39.739Z,23.63
2023-04-26T01:42:07.549Z,17.33
2023-04-26T01:44:35.429Z,23.70
2023-04-26T01:47:03.242Z,10.30
2023-04-26T01:49:31.285Z,8.52
2023-04-26T01:51:59.788Z,3.22
2023-04-26T01:54:27.502Z,4.63
2023-04-26T01:56:55.318Z,18.83
2023-04-26T01:59:23.064Z,4.05
2023-04-26T02:01:50.932Z,7.57
2023-04-26T02:04:18.746Z,4.00
2023-04-26T02:06:46.529Z,10.70
2023-04-26T02:09:14.258Z,30.33
2023-04-26T02:11:42.389Z,40.97
2023-04-26T02:14:10.084Z,4.72
2023-04-26T02:16:40.585Z,9.95
2023-04-26T02:19:10.842Z,4.82
2023-04-26T02:21:58.432Z,6.95
2023-04-26T02:24:26.928Z,23.83
2023-04-26T02:26:55.068Z,19.45
2023-04-26T02:29:36.318Z,41.75
2023-04-26T02:32:10.733Z,3.17
2023-04-26T02:34:38.867Z,2.80
2023-04-26T02:37:07.529Z,2.53
2023-04-26T02:39:35.465Z,3.22
2023-04-26T02:42:03.609Z,3.08
2023-04-26T02:44:31.699Z,3.28
2023-04-26T02:46:59.445Z,11.00
2023-04-26T02:49:27.416Z,10.63
2023-04-26T02:51:55.192Z,8.70
2023-04-26T02:54:22.916Z,7.28
2023-04-26T02:56:50.645Z,3.45
2023-04-26T02:59:18.412Z,3.55
2023-04-26T03:01:46.255Z,4.78
2023-04-26T03:04:14.148Z,13.93
2023-04-26T03:06:41.874Z,5.28
2023-04-26T03:09:09.628Z,12.50
2023-04-26T03:11:37.417Z,10.25
2023-04-26T03:14:05.196Z,17.50
2023-04-26T03:16:42.865Z,14.10
2023-04-26T03:19:10.774Z,7.70
2023-04-26T03:21:39.775Z,6.22
2023-04-26T03:24:07.775Z,3.53
2023-04-26T03:26:35.597Z,3.22
2023-04-26T03:29:03.679Z,2.78
2023-04-26T03:31:31.626Z,3.30
2023-04-26T03:34:00.348Z,3.28
2023-04-26T03:36:34.861Z,3.40
2023-04-26T03:39:07.446Z,3.00
2023-04-26T03:41:39.559Z,1.88
2023-04-26T03:44:08.471Z,2.67
2023-04-26T03:46:36.457Z,2.70
2023-04-26T03:49:04.840Z,2.70
2023-04-26T03:51:32.740Z,3.00
2023-04-26T03:54:00.546Z,2.55
2023-04-26T03:56:28.327Z,3.00
2023-04-26T03:58:56.838Z,2.42
2023-04-26T04:01:25.825Z,2.65
2023-04-26T04:03:54.010Z,3.13
2023-04-26T04:06:21.883Z,7.93
2023-04-26T04:08:51.085Z,2.95
2023-04-26T04:11:18.960Z,2.97
2023-04-26T04:13:46.683Z,3.50
2023-04-26T04:16:14.517Z,3.00
2023-04-26T04:18:42.314Z,5.32
2023-04-26T04:21:10.308Z,4.70
2023-04-26T04:23:38.655Z,11.48
2023-04-26T04:26:09.879Z,6.65
2023-04-26T04:28:41.459Z,2.88
2023-04-26T04:31:09.857Z,2.83
2023-04-26T04:33:37.924Z,4.05
2023-04-26T04:36:08.319Z,3.08
2023-04-26T04:38:37.348Z,3.53
2023-04-26T04:41:08.407Z,3.75
2023-04-26T04:43:36.339Z,4.90
2023-04-26T04:46:04.125Z,5.00
2023-04-26T04:48:31.991Z,4.30
2023-04-26T04:51:00.645Z,4.50
2023-04-26T04:53:28.455Z,3.80
2023-04-26T04:55:56.947Z,3.67
2023-04-26T04:58:24.748Z,15.55
2023-04-26T05:00:54.421Z,9.43
2023-04-26T05:03:30.752Z,20.40
2023-04-26T05:05:58.765Z,44.80
2023-04-26T05:08:26.971Z,46.70
2023-04-26T05:10:56.740Z,47.03
2023-04-26T05:13:24.511Z,33.00
2023-04-26T05:15:52.270Z,6.75
2023-04-26T05:18:19.980Z,3.45
2023-04-26T05:20:47.733Z,3.78
2023-04-26T05:23:15.524Z,3.60
2023-04-26T05:25:43.340Z,3.60
2023-04-26T05:28:29.593Z,7.78
2023-04-26T05:31:15.931Z,12.93
2023-04-26T05:34:19.244Z,8.90
2023-04-26T05:36:51.640Z,8.25
2023-04-26T05:39:20.632Z,9.65
2023-04-26T05:41:48.803Z,11.13
2023-04-26T05:44:16.633Z,7.63
2023-04-26T05:46:45.157Z,8.75
2023-04-26T05:49:12.975Z,7.10
2023-04-26T05:51:41.085Z,6.95
2023-04-26T05:54:08.775Z,7.70
2023-04-26T05:56:36.550Z,7.55
2023-04-26T05:59:04.315Z,9.20
2023-04-26T06:01:33.937Z,7.20
2023-04-26T06:04:03.298Z,6.47
2023-04-26T06:06:38.013Z,6.78
2023-04-26T06:09:05.826Z,6.88
2023-04-26T06:11:33.634Z,16.95
2023-04-26T06:14:01.713Z,9.70
2023-04-26T06:16:30.206Z,7.95
2023-04-26T06:18:57.941Z,9.95
2023-04-26T06:21:26.356Z,6.65
2023-04-26T06:23:54.569Z,16.17
2023-04-26T06:26:25.960Z,7.60
2023-04-26T06:28:53.722Z,8.93
2023-04-26T06:31:22.837Z,7.95
2023-04-26T06:33:51.442Z,7.18
2023-04-26T06:36:19.317Z,7.05
2023-04-26T06:38:47.476Z,6.55
2023-04-26T06:41:15.428Z,11.55
2023-04-26T06:43:43.338Z,5.88
2023-04-26T06:46:21.905Z,8.45
2023-04-26T06:48:56.070Z,6.32
2023-04-26T06:51:25.856Z,6.68
2023-04-26T06:53:53.832Z,6.70
2023-04-26T06:56:21.775Z,6.25
2023-04-26T06:59:07.101Z,7.30
2023-04-26T07:01:36.059Z,7.60
2023-04-26T07:04:10.858Z,7.70
2023-04-26T07:06:39.460Z,7.53
2023-04-26T07:09:07.936Z,9.23
2023-04-26T07:11:35.742Z,7.60
2023-04-26T07:14:04.688Z,7.47
2023-04-26T07:16:32.545Z,8.23
2023-04-26T07:19:00.940Z,6.63
2023-04-26T07:21:28.688Z,5.97
2023-04-26T07:23:57.040Z,8.10
2023-04-26T07:26:27.029Z,7.35
2023-04-26T07:28:54.860Z,5.93
2023-04-26T07:31:22.858Z,8.48
2023-04-26T07:33:51.007Z,5.40
2023-04-26T07:36:18.958Z,7.20
2023-04-26T07:38:46.741Z,7.40
2023-04-26T07:41:16.374Z,8.27
2023-04-26T07:43:44.229Z,10.30
2023-04-26T07:46:12.101Z,8.73
2023-04-26T07:48:39.968Z,9.82
2023-04-26T07:51:12.609Z,5.72
2023-04-26T07:53:41.353Z,7.10
2023-04-26T07:56:10.028Z,11.02
2023-04-26T07:58:41.553Z,6.35
2023-04-26T08:03:38.022Z,9.73
2023-04-26T08:06:06.678Z,6.38
2023-04-26T08:08:40.391Z,4.53
2023-04-26T08:11:09.701Z,4.93
2023-04-26T08:13:37.506Z,6.47
2023-04-26T08:16:06.339Z,5.30
2023-04-26T08:18:34.029Z,4.28
2023-04-26T08:21:04.086Z,5.88
2023-04-26T08:23:38.258Z,6.22
2023-04-26T08:26:06.516Z,4.63
2023-04-26T08:28:35.770Z,14.05
2023-04-26T08:31:04.266Z,4.55
2023-04-26T08:33:32.200Z,5.97
2023-04-26T08:36:01.737Z,6.10
2023-04-26T08:38:29.644Z,5.50
2023-04-26T08:41:02.447Z,6.65
2023-04-26T08:43:30.257Z,4.85
2023-04-26T08:45:59.727Z,9.02
2023-04-26T08:48:32.875Z,14.90
2023-04-26T08:51:02.075Z,8.05
2023-04-26T08:53:31.436Z,5.22
2023-04-26T08:56:01.128Z,8.02
2023-04-26T08:58:28.970Z,5.05
2023-04-26T09:00:57.366Z,5.93
2023-04-26T09:03:26.432Z,4.35
2023-04-26T09:05:54.595Z,4.50
2023-04-26T09:08:22.503Z,4.25
2023-04-26T09:10:50.241Z,3.97
2023-04-26T09:13:18.012Z,3.75
2023-04-26T09:15:50.168Z,5.35
2023-04-26T09:18:23.575Z,4.70
2023-04-26T09:21:08.807Z,5.75
2023-04-26T09:23:56.477Z,4.53
2023-04-26T09:26:24.703Z,5.22
2023-04-26T09:29:18.122Z,8.75
2023-04-26T09:31:50.660Z,5.18
2023-04-26T09:34:18.432Z,4.22
2023-04-26T09:36:57.941Z,4.68
2023-04-26T09:39:40.105Z,5.43
2023-04-26T09:42:09.855Z,4.90
2023-04-26T09:44:38.232Z,4.05
2023-04-26T09:47:12.077Z,5.22
2023-04-26T09:49:49.078Z,6.32
2023-04-26T09:52:18.927Z,4.32
2023-04-26T09:54:53.318Z,4.60
2023-04-26T09:57:23.646Z,5.45
2023-04-26T09:59:56.370Z,4.30
2023-04-26T10:02:26.616Z,4.28
2023-04-26T10:04:57.360Z,7.70
2023-04-26T10:07:26.130Z,4.53
2023-04-26T10:09:55.439Z,6.30
2023-04-26T10:12:23.556Z,4.38
2023-04-26T10:14:51.285Z,6.63
2023-04-26T10:17:20.698Z,4.82
2023-04-26T10:19:53.525Z,3.83
2023-04-26T10:22:33.623Z,4.13
2023-04-26T10:25:01.487Z,4.25
2023-04-26T10:27:44.602Z,4.13
2023-04-26T10:30:17.444Z,4.40
2023-04-26T10:32:57.525Z,4.13
2023-04-26T10:35:30.884Z,3.47
2023-04-26T10:38:01.610Z,3.45
2023-04-26T10:40:36.138Z,3.05
2023-04-26T10:43:10.075Z,6.05
2023-04-26T10:45:39.747Z,3.53
2023-04-26T10:48:31.728Z,5.88
2023-04-26T10:51:01.225Z,2.28
2023-04-26T10:53:52.237Z,3.30
2023-04-26T10:56:26.213Z,3.50
2023-04-26T11:01:52.960Z,3.35
2023-04-26T11:04:20.906Z,7.78
2023-04-26T11:06:57.754Z,3.47
2023-04-26T11:09:48.666Z,2.80
2023-04-26T11:12:17.129Z,1.85
2023-04-26T11:14:49.012Z,3.53
2023-04-26T11:17:16.734Z,3.28
2023-04-26T11:19:47.549Z,2.78
2023-04-26T11:22:15.550Z,4.20
2023-04-26T11:24:43.397Z,5.20
2023-04-26T11:27:14.190Z,4.03
2023-04-26T11:29:42.297Z,2.78
2023-04-26T11:32:10.882Z,3.53
2023-04-26T11:34:39.338Z,3.90
2023-04-26T11:37:07.698Z,3.20
2023-04-26T11:39:37.009Z,2.85
2023-04-26T11:42:11.213Z,2.03
2023-04-26T11:44:40.545Z,2.00
2023-04-26T11:47:09.994Z,3.28
2023-04-26T11:49:38.642Z,3.78
2023-04-26T11:52:08.169Z,3.28
2023-04-26T11:54:37.862Z,5.10
2023-04-26T11:57:17.742Z,3.67
2023-04-26T11:59:46.398Z,3.20
2023-04-26T12:02:14.432Z,2.10
2023-04-26T12:04:44.223Z,3.75
2023-04-26T12:07:12.217Z,4.38
2023-04-26T12:09:44.380Z,3.10
2023-04-26T12:12:12.133Z,2.15
2023-04-26T12:14:40.945Z,2.00
2023-04-26T12:17:10.385Z,3.03
2023-04-26T12:19:40.837Z,2.38
2023-04-26T12:22:09.848Z,2.67
2023-04-26T12:24:37.936Z,3.70
2023-04-26T12:27:07.152Z,3.97
2023-04-26T12:29:35.944Z,1.67
2023-04-26T12:32:04.399Z,5.53
2023-04-26T12:34:32.365Z,2.42
2023-04-26T12:37:00.316Z,4.63
2023-04-26T12:39:28.158Z,3.25
2023-04-26T12:41:57.085Z,3.92
2023-04-26T12:44:24.920Z,3.13
2023-04-26T12:46:52.809Z,1.90
2023-04-26T12:49:20.546Z,1.80
2023-04-26T12:51:48.311Z,2.83
2023-04-26T12:54:16.277Z,1.85
2023-04-26T12:56:45.011Z,3.17
2023-04-26T12:59:12.837Z,3.08
2023-04-26T13:01:41.237Z,2.50
2023-04-26T13:04:10.215Z,2.10
2023-04-26T13:06:38.517Z,2.17
2023-04-26T13:09:08.124Z,2.70
2023-04-26T13:11:36.019Z,2.17
2023-04-26T13:14:04.006Z,3.80
2023-04-26T13:16:35.849Z,3.88
2023-04-26T13:19:03.651Z,4.28
2023-04-26T13:21:31.406Z,2.78
2023-04-26T13:23:59.134Z,2.65
2023-04-26T13:26:27.994Z,3.10
2023-04-26T13:28:56.239Z,1.98
2023-04-26T13:31:24.903Z,2.92
2023-04-26T13:33:52.911Z,2.13
2023-04-26T13:36:20.677Z,3.92
2023-04-26T13:38:48.742Z,1.83
2023-04-26T13:41:16.646Z,3.38
2023-04-26T13:43:44.444Z,2.30
2023-04-26T13:46:13.509Z,3.22
2023-04-26T13:48:41.346Z,2.15
2023-04-26T13:51:09.056Z,3.72
2023-04-26T13:53:36.865Z,2.65
2023-04-26T13:56:05.153Z,3.63
2023-04-26T13:58:32.892Z,3.90
2023-04-26T14:01:01.542Z,5.32
2023-04-26T14:03:29.521Z,3.42
2023-04-26T14:05:57.578Z,2.88
2023-04-26T14:08:25.400Z,3.60
2023-04-26T14:10:53.836Z,1.98
2023-04-26T14:13:21.817Z,3.50
2023-04-26T14:15:49.835Z,3.95
2023-04-26T14:18:17.963Z,2.67
2023-04-26T14:20:46.798Z,3.72
2023-04-26T14:23:15.343Z,1.67
2023-04-26T14:25:43.188Z,1.92
2023-04-26T14:28:10.902Z,3.97
2023-04-26T14:30:38.748Z,4.32
2023-04-26T14:33:06.709Z,5.25
2023-04-26T14:35:34.479Z,5.43
2023-04-26T14:38:02.309Z,3.08
2023-04-26T14:40:30.403Z,2.97
2023-04-26T14:42:58.195Z,4.22
2023-04-26T14:45:33.526Z,2.92
2023-04-26T14:48:12.168Z,1.88
2023-04-26T14:50:40.131Z,5.35
2023-04-26T14:53:07.881Z,5.60
2023-04-26T14:55:35.653Z,5.40
2023-04-26T14:58:03.494Z,2.25
2023-04-26T15:00:31.462Z,2.45
2023-04-26T15:02:59.313Z,4.25
2023-04-26T15:05:27.840Z,2.63
2023-04-26T15:07:56.875Z,2.05
2023-04-26T15:10:24.652Z,2.88
2023-04-26T15:12:52.372Z,1.83
2023-04-26T15:15:20.172Z,4.15
2023-04-26T15:17:47.960Z,6.15
2023-04-26T15:20:16.019Z,3.75
2023-04-26T15:22:44.047Z,4.25
2023-04-26T15:25:12.129Z,4.00
2023-04-26T15:27:39.969Z,6.00
2023-04-26T15:30:10.955Z,3.13
2023-04-26T15:32:38.728Z,3.38
2023-04-26T15:35:07.870Z,4.30
2023-04-26T15:37:37.959Z,3.25
2023-04-26T15:40:06.842Z,9.80
2023-04-26T15:42:34.578Z,2.72
2023-04-26T15:45:03.565Z,2.58
2023-04-26T15:47:31.422Z,3.92
2023-04-26T15:50:04.368Z,2.92
2023-04-26T15:52:38.802Z,2.83
2023-04-26T15:55:08.106Z,3.75
2023-04-26T15:57:35.900Z,2.33
2023-04-26T16:00:06.016Z,4.95
2023-04-26T16:02:36.006Z,3.15
2023-04-26T16:05:04.614Z,3.90
2023-04-26T16:07:32.601Z,2.55
2023-04-26T16:10:00.340Z,1.65
2023-04-26T16:12:28.056Z,3.35
2023-04-26T16:14:56.040Z,3.00
2023-04-26T16:17:23.730Z,2.28
2023-04-26T16:19:51.813Z,3.97
2023-04-26T16:22:19.557Z,4.60
2023-04-26T16:24:47.262Z,2.33
2023-04-26T16:27:15.012Z,1.58
2023-04-26T16:29:43.273Z,4.15
2023-04-26T16:32:11.012Z,3.47
2023-04-26T16:34:38.680Z,3.05
2023-04-26T16:37:06.550Z,1.77
2023-04-26T16:39:36.032Z,2.25
2023-04-26T16:42:03.985Z,3.90
2023-04-26T16:44:31.716Z,2.65
2023-04-26T16:46:59.571Z,3.10
2023-04-26T16:49:27.598Z,4.85
2023-04-26T16:51:58.889Z,3.63
2023-04-26T16:56:54.614Z,2.70
2023-04-26T16:59:22.603Z,6.35
2023-04-26T17:01:50.804Z,2.85
2023-04-26T17:04:18.942Z,2.80
2023-04-26T17:06:46.702Z,1.75
2023-04-26T17:09:14.839Z,2.53
2023-04-26T17:11:44.139Z,1.77
2023-04-26T17:14:11.903Z,2.92
2023-04-26T17:16:39.735Z,4.32
2023-04-26T17:19:07.630Z,4.38
2023-04-26T17:21:35.474Z,3.55
2023-04-26T17:24:03.641Z,2.38
2023-04-26T17:26:31.476Z,5.70
2023-04-26T17:28:59.292Z,3.60
2023-04-26T17:31:27.058Z,5.88
2023-04-26T17:33:54.753Z,8.18
2023-04-26T17:36:23.197Z,7.18
2023-04-26T17:38:51.021Z,11.73
2023-04-26T17:41:18.931Z,7.32
2023-04-26T17:43:47.069Z,2.97
2023-04-26T17:46:14.902Z,2.85
2023-04-26T17:48:42.670Z,5.97
2023-04-26T17:51:10.559Z,5.38
2023-04-26T17:53:38.962Z,2.90
2023-04-26T17:56:07.641Z,2.33
2023-04-26T17:58:35.541Z,2.83
2023-04-26T18:01:04.061Z,3.33
2023-04-26T18:03:32.200Z,2.97
2023-04-26T18:06:00.154Z,3.17
2023-04-26T18:08:27.873Z,2.40
2023-04-26T18:10:57.371Z,3.13
2023-04-26T18:13:25.125Z,4.70
2023-04-26T18:15:55.825Z,7.90
2023-04-26T18:18:26.410Z,6.75
2023-04-26T18:20:55.617Z,6.70
2023-04-26T18:23:23.414Z,5.78
2023-04-26T18:25:51.302Z,4.20
2023-04-26T18:28:19.056Z,8.50
2023-04-26T18:30:46.859Z,3.70
2023-04-26T18:33:14.778Z,2.72
2023-04-26T18:35:42.615Z,3.33
2023-04-26T18:38:10.315Z,2.97
2023-04-26T18:40:42.524Z,5.93
2023-04-26T18:43:10.617Z,6.13
2023-04-26T18:45:38.604Z,5.25
2023-04-26T18:48:06.670Z,5.22
2023-04-26T18:50:35.440Z,2.88
2023-04-26T18:53:03.187Z,4.85
2023-04-26T18:55:31.131Z,3.72
2023-04-26T18:57:58.790Z,2.42
2023-04-26T19:00:26.732Z,6.35
2023-04-26T19:02:54.936Z,3.80
2023-04-26T19:05:22.772Z,3.33
2023-04-26T19:07:53.854Z,4.22
2023-04-26T19:10:22.022Z,2.40
2023-04-26T19:12:49.755Z,3.20
2023-04-26T19:15:17.559Z,4.68
2023-04-26T19:17:45.324Z,3.33
2023-04-26T19:20:14.054Z,5.90
2023-04-26T19:22:41.871Z,3.53
2023-04-26T19:25:10.181Z,3.67
2023-04-26T19:27:37.946Z,4.90
2023-04-26T19:30:07.652Z,6.50
2023-04-26T19:32:36.315Z,7.22
2023-04-26T19:35:06.106Z,4.95
2023-04-26T19:37:33.933Z,6.00
2023-04-26T19:40:01.890Z,6.50
2023-04-26T19:42:29.595Z,4.20
2023-04-26T19:44:57.713Z,4.05
2023-04-26T19:47:25.458Z,3.28
2023-04-26T19:49:53.995Z,3.13
2023-04-26T19:52:21.708Z,4.68
2023-04-26T19:54:49.441Z,3.35
2023-04-26T19:57:17.308Z,3.25
2023-04-26T19:59:45.018Z,2.72
2023-04-26T20:02:12.824Z,4.65
2023-04-26T20:04:41.110Z,2.47
2023-04-26T20:07:08.849Z,4.45
2023-04-26T20:09:36.581Z,3.40
2023-04-26T20:12:04.439Z,2.05
2023-04-26T20:14:32.272Z,3.38
2023-04-26T20:17:02.913Z,2.92
2023-04-26T20:19:30.831Z,1.90
2023-04-26T20:21:58.623Z,7.90
2023-04-26T20:24:29.110Z,4.40
2023-04-26T20:26:56.885Z,2.97
2023-04-26T20:29:24.697Z,6.80
2023-04-26T20:31:52.442Z,9.63
2023-04-26T20:34:20.448Z,6.93
2023-04-26T20:36:48.378Z,6.78
2023-04-26T20:39:16.474Z,7.57
2023-04-26T20:41:44.294Z,5.30
2023-04-26T20:44:12.033Z,3.08
2023-04-26T20:46:39.903Z,2.78
2023-04-26T20:49:07.786Z,2.55
2023-04-26T20:51:35.743Z,3.13
2023-04-26T20:54:03.566Z,2.95
2023-04-26T20:56:31.222Z,3.28
2023-04-26T20:58:59.007Z,1.92
2023-04-26T21:01:27.827Z,2.80
2023-04-26T21:03:55.771Z,3.53
2023-04-26T21:06:23.624Z,3.42
2023-04-26T21:08:51.538Z,2.35
2023-04-26T21:11:19.246Z,2.85
2023-04-26T21:13:48.215Z,6.22
2023-04-26T21:16:15.999Z,5.93
2023-04-26T21:18:43.752Z,3.80
2023-04-26T21:21:11.747Z,2.70
2023-04-26T21:23:39.451Z,4.80
2023-04-26T21:26:07.206Z,3.33
2023-04-26T21:28:34.920Z,2.28
2023-04-26T21:31:07.404Z,4.60
2023-04-26T21:33:35.818Z,3.90
2023-04-26T21:36:03.911Z,2.67
2023-04-26T21:38:31.615Z,2.85
2023-04-26T21:40:59.302Z,2.17
2023-04-26T21:43:26.996Z,2.90
2023-04-26T21:46:00.829Z,4.03
2023-04-26T21:48:28.702Z,2.75
2023-04-26T21:50:56.893Z,3.83
2023-04-26T21:53:24.659Z,3.15
2023-04-26T21:55:53.811Z,5.35
2023-04-26T21:58:22.302Z,3.20
2023-04-26T22:00:50.819Z,5.55
2023-04-26T22:03:19.946Z,4.18
2023-04-26T22:05:47.884Z,5.10
2023-04-26T22:08:15.601Z,4.05
2023-04-26T22:10:43.354Z,4.47
2023-04-26T22:13:11.521Z,2.40
2023-04-26T22:15:39.226Z,3.95
2023-04-26T22:18:07.164Z,4.53
2023-04-26T22:20:35.142Z,3.78
2023-04-26T22:23:02.933Z,4.70
2023-04-26T22:25:30.705Z,3.95
2023-04-26T22:27:58.526Z,3.05
2023-04-26T22:30:26.505Z,3.65
2023-04-26T22:32:57.409Z,2.50
2023-04-26T22:35:27.631Z,1.98
2023-04-26T22:37:55.561Z,4.05
2023-04-26T22:40:23.288Z,3.00
2023-04-26T22:42:51.194Z,4.13
2023-04-26T22:45:19.308Z,3.05
2023-04-26T22:47:47.222Z,3.92
2023-04-26T22:50:14.966Z,4.57
2023-04-26T22:52:42.671Z,6.40
2023-04-26T22:55:10.605Z,6.85
2023-04-26T22:57:38.380Z,4.72
2023-04-26T23:00:12.556Z,5.18
2023-04-26T23:02:40.835Z,3.97
2023-04-26T23:05:12.096Z,6.15
2023-04-26T23:07:40.866Z,5.18
2023-04-26T23:10:09.234Z,4.88
2023-04-26T23:12:37.261Z,4.20
2023-04-26T23:15:06.214Z,5.25
2023-04-26T23:17:34.341Z,3.17
2023-04-26T23:20:02.395Z,4.53
2023-04-26T23:22:30.082Z,4.35
2023-04-26T23:24:57.827Z,6.88
2023-04-26T23:27:26.032Z,4.93
2023-04-26T23:29:53.809Z,6.72
2023-04-26T23:32:21.553Z,3.88
2023-04-26T23:34:49.267Z,3.75
2023-04-26T23:37:17.272Z,3.58
2023-04-26T23:39:44.982Z,6.25
2023-04-26T23:42:12.947Z,5.35
2023-04-26T23:44:40.729Z,2.83
2023-04-26T23:47:09.211Z,3.20
2023-04-26T23:49:36.895Z,3.60
2023-04-26T23:52:04.928Z,3.38
2023-04-26T23:54:32.776Z,4.05
2023-04-26T23:57:00.519Z,5.60
2023-04-26T23:59:28.232Z,5.57
